Time;durP1;ratioP1;P1;durP2;ratioP2;P2;SDS_P1;SDS_P2;PMS_P1;PMS_P2;Temp;Humidity;BMP_temperature;BMP_pressure;BME280_temperature;BME280_humidity;BME280_pressure;Samples;Min_cycle;Max_cycle;Signal;HPM_P1;HPM_P2
2023/08/05 00:00:08;;;;;;;5.87;3.13;;;19.00;99.90;;;;;;4460137;28;654896;-69
2023/08/05 00:02:55;;;;;;;6.53;3.20;;;19.00;99.90;;;;;;4441972;27;655999;-69
2023/08/05 00:05:43;;;;;;;7.87;3.10;;;19.00;99.90;;;;;;4444566;27;654793;-69
2023/08/05 00:08:31;;;;;;;5.27;2.83;;;18.90;99.90;;;;;;4457702;27;655696;-70
2023/08/05 00:11:19;;;;;;;3.60;2.70;;;18.90;99.90;;;;;;4446267;27;655019;-70
2023/08/05 00:14:06;;;;;;;9.43;3.00;;;18.90;99.90;;;;;;4470094;27;655895;-70
2023/08/05 00:16:53;;;;;;;5.10;2.77;;;18.90;99.90;;;;;;4449118;27;655336;-70
2023/08/05 00:19:40;;;;;;;7.57;3.30;;;18.80;99.90;;;;;;4462585;27;655159;-70
2023/08/05 00:22:28;;;;;;;6.93;2.90;;;18.90;99.90;;;;;;4448087;27;654336;-69
2023/08/05 00:25:17;;;;;;;5.63;2.80;;;18.80;99.90;;;;;;4467914;27;655036;-69
2023/08/05 00:28:04;;;;;;;5.73;2.80;;;18.80;99.90;;;;;;4442182;27;654666;-70
2023/08/05 00:30:51;;;;;;;6.00;2.80;;;18.80;99.90;;;;;;4467096;27;654790;-69
2023/08/05 00:33:39;;;;;;;9.23;2.67;;;18.80;99.90;;;;;;4442877;27;654797;-69
2023/08/05 00:36:26;;;;;;;4.60;2.40;;;18.80;99.90;;;;;;4464979;27;654567;-70
2023/08/05 00:39:14;;;;;;;6.40;2.80;;;18.80;99.90;;;;;;4442543;27;655028;-70
2023/08/05 00:42:02;;;;;;;8.47;2.97;;;18.70;99.90;;;;;;4470355;27;655164;-69
2023/08/05 00:44:50;;;;;;;8.37;2.67;;;18.70;99.90;;;;;;4450435;27;654457;-70
2023/08/05 00:47:37;;;;;;;7.03;2.77;;;18.70;99.90;;;;;;4465808;27;654337;-69
2023/08/05 00:50:24;;;;;;;6.63;2.80;;;18.70;99.90;;;;;;4450374;27;655628;-69
2023/08/05 00:53:11;;;;;;;8.00;2.90;;;18.70;99.90;;;;;;4462271;27;654052;-70
2023/08/05 00:55:59;;;;;;;7.83;3.10;;;18.70;99.90;;;;;;4445201;27;654518;-69
2023/08/05 00:58:47;;;;;;;3.57;2.60;;;18.60;99.90;;;;;;4465445;27;653837;-69
2023/08/05 01:01:34;;;;;;;8.43;2.83;;;18.60;99.90;;;;;;4443337;27;655456;-69
2023/08/05 01:04:22;;;;;;;5.67;2.77;;;18.60;99.90;;;;;;4470136;27;653617;-69
2023/08/05 01:07:09;;;;;;;3.90;2.73;;;18.60;99.90;;;;;;4450035;27;654980;-70
2023/08/05 01:09:56;;;;;;;5.50;2.90;;;18.60;99.90;;;;;;4469040;27;653859;-70
2023/08/05 01:12:44;;;;;;;7.93;2.90;;;18.50;99.90;;;;;;4448830;27;654318;-69
2023/08/05 01:15:32;;;;;;;4.70;2.87;;;18.50;99.90;;;;;;4465138;27;655095;-69
2023/08/05 01:18:20;;;;;;;5.10;2.78;;;18.50;99.90;;;;;;4447012;27;655678;-70
2023/08/05 01:21:11;;;;;;;6.97;3.13;;;18.50;99.90;;;;;;4469286;27;655841;-69
2023/08/05 01:24:03;;;;;;;6.07;3.20;;;18.50;99.90;;;;;;4428144;27;654709;-69
2023/08/05 01:26:52;;;;;;;6.20;3.00;;;18.50;99.90;;;;;;4458665;27;654675;-69
2023/08/05 01:29:39;;;;;;;6.10;2.87;;;18.50;99.90;;;;;;4455057;27;654533;-69
2023/08/05 01:32:27;;;;;;;6.75;2.90;;;18.40;99.90;;;;;;4464639;27;654448;-69
2023/08/05 01:35:14;;;;;;;6.53;2.80;;;18.50;99.90;;;;;;4453627;27;655496;-69
2023/08/05 01:38:01;;;;;;;6.00;2.83;;;18.50;99.90;;;;;;4472576;27;655189;-70
2023/08/05 01:40:49;;;;;;;8.40;2.80;;;18.50;99.90;;;;;;4448837;27;654421;-69
2023/08/05 01:43:37;;;;;;;6.87;3.10;;;18.50;99.90;;;;;;4473348;27;654562;-70
2023/08/05 01:46:25;;;;;;;6.33;2.93;;;18.40;99.90;;;;;;4437763;28;655246;-69
2023/08/05 01:49:12;;;;;;;7.00;2.90;;;18.50;99.90;;;;;;4470090;27;655069;-70
2023/08/05 01:52:00;;;;;;;4.90;3.03;;;18.50;99.90;;;;;;4470187;27;655465;-70
2023/08/05 01:54:47;;;;;;;5.13;3.00;;;18.50;99.90;;;;;;4464348;27;655755;-70
2023/08/05 01:57:35;;;;;;;6.70;2.90;;;18.50;99.90;;;;;;4465252;27;655036;-70
2023/08/05 02:00:24;;;;;;;7.93;3.33;;;18.50;99.90;;;;;;4456567;27;654447;-69
2023/08/05 02:03:11;;;;;;;7.73;3.30;;;18.40;99.90;;;;;;4462169;27;656173;-70
2023/08/05 02:05:58;;;;;;;6.53;2.70;;;18.50;99.90;;;;;;4438720;28;655585;-69
2023/08/05 02:08:46;;;;;;;7.43;3.27;;;18.40;99.90;;;;;;4457943;27;654741;-70
2023/08/05 02:11:33;;;;;;;7.47;2.93;;;18.40;99.90;;;;;;4442029;27;654748;-70
2023/08/05 02:14:20;;;;;;;9.03;2.90;;;18.40;99.90;;;;;;4463970;28;655589;-70
2023/08/05 02:17:09;;;;;;;4.97;2.73;;;18.50;99.90;;;;;;4444262;27;654544;-69
2023/08/05 02:19:56;;;;;;;6.03;2.50;;;18.50;99.90;;;;;;4461922;27;654436;-70
2023/08/05 02:22:43;;;;;;;5.70;2.83;;;18.50;99.90;;;;;;4450095;27;654416;-70
2023/08/05 02:25:31;;;;;;;5.87;2.50;;;18.60;99.90;;;;;;4465804;27;655624;-69
2023/08/05 02:28:18;;;;;;;5.33;2.40;;;18.60;99.90;;;;;;4444918;27;654794;-69
2023/08/05 02:31:05;;;;;;;4.53;2.10;;;18.70;99.90;;;;;;4471002;27;655109;-69
2023/08/05 02:33:54;;;;;;;7.30;2.50;;;18.70;99.90;;;;;;4445878;27;654654;-69
2023/08/05 02:36:41;;;;;;;5.20;2.70;;;18.80;99.90;;;;;;4465508;27;655262;-70
2023/08/05 02:39:28;;;;;;;6.07;2.97;;;18.80;99.90;;;;;;4446411;27;654581;-69
2023/08/05 02:42:16;;;;;;;8.50;2.60;;;18.90;99.90;;;;;;4456407;28;654402;-70
2023/08/05 02:45:04;;;;;;;5.60;2.60;;;18.90;99.90;;;;;;4445160;28;654232;-69
2023/08/05 02:47:51;;;;;;;6.57;2.67;;;18.90;99.90;;;;;;4464984;27;655306;-70
2023/08/05 02:50:40;;;;;;;7.70;2.87;;;18.90;99.90;;;;;;4444267;27;654182;-70
2023/08/05 02:53:27;;;;;;;8.73;2.60;;;18.90;99.90;;;;;;4466948;27;654467;-70
2023/08/05 02:56:15;;;;;;;4.03;2.77;;;18.90;99.90;;;;;;4447198;27;654855;-69
2023/08/05 02:59:02;;;;;;;7.67;3.17;;;18.90;99.90;;;;;;4462250;27;655222;-69
2023/08/05 03:01:50;;;;;;;5.90;3.03;;;18.90;99.90;;;;;;4465763;27;655196;-70
2023/08/05 03:04:37;;;;;;;6.53;2.93;;;18.80;99.90;;;;;;4461682;27;655467;-69
2023/08/05 03:07:26;;;;;;;9.03;3.23;;;18.80;99.90;;;;;;4462335;27;655847;-70
2023/08/05 03:10:13;;;;;;;6.37;3.47;;;18.70;99.90;;;;;;4445267;27;654803;-69
2023/08/05 03:13:01;;;;;;;5.80;3.20;;;18.60;99.90;;;;;;4463128;27;655487;-71
2023/08/05 03:15:48;;;;;;;9.30;3.53;;;18.50;99.90;;;;;;4440423;28;654475;-70
2023/08/05 03:18:36;;;;;;;7.53;3.67;;;18.40;99.90;;;;;;4465000;27;654715;-70
2023/08/05 03:21:23;;;;;;;8.57;3.60;;;18.30;99.90;;;;;;4446857;27;654290;-70
2023/08/05 03:24:12;;;;;;;7.03;3.50;;;18.10;99.90;;;;;;4459310;27;655194;-72
2023/08/05 03:26:59;;;;;;;8.43;4.00;;;17.90;99.90;;;;;;4438504;27;656771;-72
2023/08/05 03:29:47;;;;;;;12.57;4.37;;;17.80;99.90;;;;;;4464198;28;654488;-74
2023/08/05 03:32:34;;;;;;;8.20;4.30;;;17.80;99.90;;;;;;4434833;27;657376;-72
2023/08/05 03:35:22;;;;;;;10.37;4.07;;;17.70;99.90;;;;;;4464611;27;654858;-73
2023/08/05 03:38:09;;;;;;;7.73;3.93;;;17.60;99.90;;;;;;4443701;27;655564;-71
2023/08/05 03:41:01;;;;;;;9.20;3.90;;;17.50;99.90;;;;;;4462149;27;654912;-72
2023/08/05 03:43:48;;;;;;;14.17;4.50;;;17.40;99.90;;;;;;4421901;28;654975;-71
2023/08/05 03:46:37;;;;;;;12.13;4.57;;;17.30;99.90;;;;;;4463052;27;656612;-72
2023/08/05 03:49:24;;;;;;;7.00;3.83;;;17.20;99.90;;;;;;4437690;28;657210;-70
2023/08/05 03:52:12;;;;;;;7.63;3.90;;;17.20;99.90;;;;;;4460551;27;654031;-70
2023/08/05 03:54:59;;;;;;;14.30;4.10;;;17.20;99.90;;;;;;4447204;27;654980;-71
2023/08/05 03:57:48;;;;;;;7.00;4.00;;;17.10;99.90;;;;;;4462311;27;654981;-72
2023/08/05 04:00:36;;;;;;;10.63;4.10;;;17.10;99.90;;;;;;4443685;27;655166;-72
2023/08/05 04:03:23;;;;;;;9.17;4.30;;;17.10;99.90;;;;;;4444885;27;656187;-72
2023/08/05 04:06:11;;;;;;;6.80;4.10;;;17.10;99.90;;;;;;4466239;28;655010;-71
2023/08/05 04:08:59;;;;;;;6.47;3.80;;;17.10;99.90;;;;;;4441344;28;654747;-72
2023/08/05 04:11:48;;;;;;;15.43;4.30;;;17.10;99.90;;;;;;4458946;28;654797;-70
2023/08/05 04:14:38;;;;;;;9.93;4.30;;;17.10;99.90;;;;;;4440406;27;655924;-71
2023/08/05 04:17:25;;;;;;;8.70;4.30;;;17.10;99.90;;;;;;4443193;27;655202;-71
2023/08/05 04:20:13;;;;;;;8.10;4.17;;;17.00;99.90;;;;;;4443895;27;655152;-70
2023/08/05 04:23:00;;;;;;;6.50;4.00;;;17.00;99.90;;;;;;4468212;27;655164;-71
2023/08/05 04:25:47;;;;;;;15.93;4.20;;;17.00;99.90;;;;;;4448192;27;654009;-69
2023/08/05 04:28:35;;;;;;;10.40;4.03;;;17.00;99.90;;;;;;4466215;28;656033;-70
2023/08/05 04:31:24;;;;;;;6.13;4.10;;;17.00;99.90;;;;;;4452559;27;656370;-69
2023/08/05 04:34:11;;;;;;;8.93;4.30;;;16.90;99.90;;;;;;4460621;28;655825;-71
2023/08/05 04:36:58;;;;;;;6.53;4.00;;;16.90;99.90;;;;;;4444856;28;655291;-71
2023/08/05 04:39:46;;;;;;;11.07;3.93;;;16.90;99.90;;;;;;4459788;27;656440;-71
2023/08/05 04:42:33;;;;;;;7.53;3.90;;;16.80;99.90;;;;;;4441861;28;656058;-71
2023/08/05 04:45:20;;;;;;;7.90;3.90;;;16.80;99.90;;;;;;4459021;28;656007;-71
2023/08/05 04:48:09;;;;;;;8.40;4.55;;;16.80;99.90;;;;;;4444657;28;655072;-70
2023/08/05 04:50:56;;;;;;;9.27;4.07;;;16.80;99.90;;;;;;4458817;27;654681;-70
2023/08/05 04:53:44;;;;;;;10.53;3.77;;;16.80;99.90;;;;;;4444102;28;654817;-70
2023/08/05 04:56:33;;;;;;;10.73;3.63;;;16.80;99.90;;;;;;4459082;28;655707;-70
2023/08/05 04:59:20;;;;;;;6.57;3.43;;;16.80;99.90;;;;;;4438102;27;656134;-70
2023/08/05 05:02:07;;;;;;;6.20;3.10;;;16.80;99.90;;;;;;4446362;28;654625;-69
2023/08/05 05:04:56;;;;;;;6.97;3.23;;;16.80;99.90;;;;;;4469482;27;655145;-71
2023/08/05 05:07:44;;;;;;;7.23;3.57;;;16.70;99.90;;;;;;4449216;27;655232;-71
2023/08/05 05:10:31;;;;;;;6.73;3.20;;;16.70;99.90;;;;;;4463617;27;655368;-71
2023/08/05 05:13:18;;;;;;;7.20;3.17;;;16.70;99.90;;;;;;4443659;27;654973;-70
2023/08/05 05:16:06;;;;;;;5.00;2.77;;;16.70;99.90;;;;;;4467650;27;655312;-70
2023/08/05 05:18:53;;;;;;;5.27;2.97;;;16.70;99.90;;;;;;4450420;27;654390;-69
2023/08/05 05:21:42;;;;;;;10.93;3.00;;;16.70;99.90;;;;;;4472094;27;655040;-70
2023/08/05 05:24:30;;;;;;;10.40;3.47;;;16.70;99.90;;;;;;4449681;27;655725;-70
2023/08/05 05:27:18;;;;;;;5.90;3.40;;;16.70;99.90;;;;;;4446541;27;657169;-69
2023/08/05 05:30:06;;;;;;;9.63;3.17;;;16.70;99.90;;;;;;4463344;27;655183;-71
2023/08/05 05:32:53;;;;;;;11.17;3.30;;;16.70;99.90;;;;;;4445985;27;655199;-70
2023/08/05 05:35:40;;;;;;;10.90;3.33;;;16.70;99.90;;;;;;4463552;27;656759;-70
2023/08/05 05:38:29;;;;;;;7.60;3.60;;;16.70;99.90;;;;;;4442685;27;656072;-69
2023/08/05 05:41:16;;;;;;;7.07;3.20;;;16.70;99.90;;;;;;4460525;27;654699;-71
2023/08/05 05:44:04;;;;;;;6.80;3.13;;;16.70;99.90;;;;;;4441109;27;656346;-70
2023/08/05 05:46:51;;;;;;;5.83;3.20;;;16.70;99.90;;;;;;4462269;27;654269;-70
2023/08/05 05:49:39;;;;;;;5.90;3.27;;;16.70;99.90;;;;;;4439602;27;655214;-69
2023/08/05 05:52:26;;;;;;;7.30;4.00;;;16.70;99.90;;;;;;4458519;28;654746;-69
2023/08/05 05:55:15;;;;;;;8.17;3.57;;;16.70;99.90;;;;;;4452775;27;654564;-70
2023/08/05 05:58:02;;;;;;;4.83;3.57;;;16.70;99.90;;;;;;4451010;27;655010;-69
2023/08/05 06:00:55;;;;;;;5.47;3.70;;;16.70;99.90;;;;;;4468205;27;655611;-69
2023/08/05 06:03:42;;;;;;;8.83;3.97;;;16.70;99.90;;;;;;4435075;27;654915;-69
2023/08/05 06:06:30;;;;;;;6.87;3.53;;;16.80;99.90;;;;;;4454098;27;655252;-69
2023/08/05 06:09:18;;;;;;;7.30;4.57;;;16.80;99.90;;;;;;4439591;28;655345;-69
2023/08/05 06:12:10;;;;;;;7.80;4.63;;;16.80;99.90;;;;;;4468186;27;655112;-69
2023/08/05 06:14:57;;;;;;;7.50;3.80;;;16.90;99.90;;;;;;4467123;27;654531;-68
2023/08/05 06:17:46;;;;;;;6.83;3.80;;;16.90;99.90;;;;;;4465545;28;655494;-69
2023/08/05 06:20:33;;;;;;;6.60;4.10;;;17.00;99.90;;;;;;4436433;28;654472;-70
2023/08/05 06:23:21;;;;;;;7.97;3.90;;;17.00;99.90;;;;;;4472637;27;655676;-70
2023/08/05 06:26:08;;;;;;;4.73;3.57;;;17.10;99.90;;;;;;4428616;28;654942;-70
2023/08/05 06:28:57;;;;;;;7.43;3.97;;;17.10;99.90;;;;;;4450051;28;655725;-71
2023/08/05 06:31:44;;;;;;;6.17;3.73;;;17.10;99.90;;;;;;4430581;28;654373;-71
2023/08/05 06:34:31;;;;;;;6.67;4.17;;;17.00;99.90;;;;;;4452828;28;655048;-71
2023/08/05 06:37:18;;;;;;;7.13;3.80;;;17.00;99.90;;;;;;4441999;28;654938;-70
2023/08/05 06:40:07;;;;;;;8.65;3.92;;;17.00;99.90;;;;;;4467394;28;654725;-70
2023/08/05 06:42:54;;;;;;;5.03;3.87;;;17.00;99.90;;;;;;4427979;28;654784;-69
2023/08/05 06:45:43;;;;;;;7.13;4.10;;;17.00;99.90;;;;;;4465100;27;654006;-70
2023/08/05 06:48:30;;;;;;;6.97;4.27;;;16.90;99.90;;;;;;4454200;27;654640;-70
2023/08/05 06:51:17;;;;;;;7.85;4.40;;;16.90;99.90;;;;;;4431107;28;655007;-69
2023/08/05 06:54:05;;;;;;;9.07;4.67;;;17.00;99.90;;;;;;4464706;28;655090;-70
2023/08/05 06:56:52;;;;;;;10.67;4.73;;;17.10;99.90;;;;;;4449098;28;654565;-68
2023/08/05 06:59:40;;;;;;;8.37;4.50;;;17.30;99.90;;;;;;4460005;28;656841;-69
2023/08/05 07:02:29;;;;;;;9.87;4.60;;;17.40;99.90;;;;;;4456561;28;654826;-69
2023/08/05 07:05:16;;;;;;;9.57;4.60;;;17.50;99.90;;;;;;4462313;27;654169;-71
2023/08/05 07:08:04;;;;;;;6.07;4.10;;;17.60;99.90;;;;;;4439053;27;655130;-70
2023/08/05 07:10:54;;;;;;;8.00;4.40;;;17.80;99.90;;;;;;4463214;27;654483;-71
2023/08/05 07:13:41;;;;;;;8.80;4.40;;;17.90;99.90;;;;;;4444138;27;654709;-70
2023/08/05 07:16:29;;;;;;;6.87;4.17;;;18.00;99.90;;;;;;4448702;27;655426;-70
2023/08/05 07:19:17;;;;;;;9.53;4.57;;;18.00;99.90;;;;;;4462856;27;655284;-71
2023/08/05 07:22:05;;;;;;;6.90;4.03;;;18.00;99.90;;;;;;4446724;27;655303;-69
2023/08/05 07:24:54;;;;;;;7.47;4.37;;;17.90;99.90;;;;;;4442625;27;654545;-69
2023/08/05 07:27:41;;;;;;;6.10;4.37;;;17.90;99.90;;;;;;4462114;28;654530;-70
2023/08/05 07:30:29;;;;;;;8.77;4.23;;;17.90;99.90;;;;;;4439523;27;655748;-70
2023/08/05 07:33:17;;;;;;;6.10;3.87;;;17.90;99.90;;;;;;4465994;27;655048;-70
2023/08/05 07:36:12;;;;;;;5.97;4.23;;;18.00;99.90;;;;;;4448584;28;655794;-69
2023/08/05 07:39:02;;;;;;;9.43;4.30;;;18.20;99.90;;;;;;4420498;27;654822;-68
2023/08/05 07:41:49;;;;;;;7.13;4.10;;;18.50;99.90;;;;;;4446023;27;655343;-68
2023/08/05 07:44:38;;;;;;;6.87;4.00;;;18.70;99.90;;;;;;4465804;27;653887;-68
2023/08/05 07:47:25;;;;;;;8.27;3.90;;;18.60;99.90;;;;;;4444854;27;656179;-68
2023/08/05 07:50:16;;;;;;;7.43;4.27;;;18.50;99.90;;;;;;4449200;27;654318;-68
2023/08/05 07:53:05;;;;;;;7.07;4.07;;;18.40;99.90;;;;;;4449570;28;655205;-69
2023/08/05 07:55:53;;;;;;;7.50;4.60;;;18.30;99.90;;;;;;4459148;27;654343;-69
2023/08/05 07:58:42;;;;;;;6.70;4.20;;;18.20;99.90;;;;;;4466200;27;655688;-69
2023/08/05 08:01:29;;;;;;;9.47;4.20;;;18.20;99.90;;;;;;4441171;28;655372;-69
2023/08/05 08:04:17;;;;;;;8.70;4.57;;;18.20;99.90;;;;;;4470631;27;654433;-69
2023/08/05 08:07:04;;;;;;;7.80;4.60;;;18.20;99.90;;;;;;4442930;28;654915;-69
2023/08/05 08:09:53;;;;;;;9.50;4.90;;;18.20;99.90;;;;;;4463368;27;655140;-69
2023/08/05 08:12:41;;;;;;;13.07;4.53;;;18.00;99.90;;;;;;4445480;27;655165;-69
2023/08/05 08:15:28;;;;;;;11.20;4.83;;;18.00;99.90;;;;;;4444632;28;655573;-69
2023/08/05 08:18:16;;;;;;;6.00;4.23;;;18.10;99.90;;;;;;4463938;27;656021;-68
2023/08/05 08:21:03;;;;;;;9.30;4.77;;;18.10;99.90;;;;;;4443616;28;654501;-68
2023/08/05 08:23:51;;;;;;;12.50;4.70;;;18.20;99.90;;;;;;4467578;27;655084;-68
2023/08/05 08:26:39;;;;;;;6.90;4.73;;;18.20;99.90;;;;;;4441359;28;655572;-67
2023/08/05 08:29:27;;;;;;;8.73;5.07;;;18.30;99.90;;;;;;4466314;27;656234;-68
2023/08/05 08:32:14;;;;;;;8.50;4.70;;;18.30;99.90;;;;;;4443725;27;655075;-68
2023/08/05 08:35:01;;;;;;;16.40;5.00;;;18.30;99.90;;;;;;4468206;27;654147;-67
2023/08/05 08:37:49;;;;;;;8.90;5.07;;;18.30;99.90;;;;;;4449110;27;655950;-67
2023/08/05 08:40:36;;;;;;;9.03;5.50;;;18.30;99.90;;;;;;4465752;27;655406;-65
2023/08/05 08:43:24;;;;;;;9.40;5.23;;;18.40;99.90;;;;;;4443641;27;654345;-66
2023/08/05 08:46:12;;;;;;;7.27;4.83;;;18.40;99.90;;;;;;4467864;27;655013;-65
2023/08/05 08:48:59;;;;;;;7.87;4.97;;;18.50;99.90;;;;;;4446755;27;655286;-65
2023/08/05 08:51:48;;;;;;;10.75;5.22;;;18.50;99.90;;;;;;4466724;27;655119;-66
2023/08/05 08:54:35;;;;;;;9.80;5.27;;;18.50;99.90;;;;;;4443873;27;656063;-66
2023/08/05 08:57:23;;;;;;;11.70;5.00;;;18.50;99.90;;;;;;4455054;27;654547;-67
2023/08/05 09:00:13;;;;;;;9.63;5.57;;;18.50;99.90;;;;;;4470292;27;656025;-65
2023/08/05 09:03:01;;;;;;;7.77;5.00;;;18.60;99.90;;;;;;4447047;27;655463;-67
2023/08/05 09:05:55;;;;;;;7.40;5.30;;;18.70;99.90;;;;;;4448964;27;654998;-66
2023/08/05 09:08:42;;;;;;;8.60;4.97;;;18.70;99.90;;;;;;4429541;27;654652;-67
2023/08/05 09:11:30;;;;;;;9.23;5.23;;;18.80;99.90;;;;;;4470721;27;655445;-66
2023/08/05 09:14:18;;;;;;;7.00;5.47;;;18.80;99.90;;;;;;4464210;27;654558;-66
2023/08/05 09:17:07;;;;;;;5.87;5.00;;;18.90;99.90;;;;;;4466107;27;655425;-66
2023/08/05 09:19:54;;;;;;;9.40;6.07;;;18.90;99.90;;;;;;4438120;28;655025;-66
2023/08/05 09:22:41;;;;;;;9.13;6.40;;;18.80;99.90;;;;;;4429705;27;654709;-66
2023/08/05 09:25:29;;;;;;;9.90;6.10;;;18.80;99.90;;;;;;4452256;27;655066;-66
2023/08/05 09:28:30;;;;;;;14.43;6.27;;;18.70;99.90;;;;;;4459486;27;654761;-66
2023/08/05 09:31:18;;;;;;;11.60;6.23;;;18.90;99.90;;;;;;4417865;27;655818;-67
2023/08/05 09:34:08;;;;;;;8.90;6.83;;;19.00;99.90;;;;;;4444409;27;656741;-66
2023/08/05 09:36:57;;;;;;;16.57;7.20;;;19.20;99.90;;;;;;4438423;27;655241;-66
2023/08/05 09:39:45;;;;;;;13.07;7.23;;;19.20;99.90;;;;;;4432566;27;655730;-66
2023/08/05 09:42:33;;;;;;;9.73;8.07;;;19.20;99.90;;;;;;4474333;27;656274;-66
2023/08/05 09:45:21;;;;;;;14.20;8.37;;;19.20;99.90;;;;;;4466563;27;655832;-66
2023/08/05 09:48:10;;;;;;;12.80;7.60;;;19.20;99.90;;;;;;4432139;27;655626;-66
2023/08/05 09:50:59;;;;;;;13.43;7.43;;;19.20;99.90;;;;;;4441679;27;655683;-67
2023/08/05 09:53:49;;;;;;;10.70;7.30;;;19.30;99.90;;;;;;4462188;27;655483;-66
2023/08/05 09:56:37;;;;;;;12.43;8.60;;;19.50;99.90;;;;;;4440907;27;656808;-66
2023/08/05 09:59:24;;;;;;;14.27;8.83;;;19.60;99.90;;;;;;4433833;27;657007;-65
2023/08/05 10:02:12;;;;;;;14.23;8.87;;;19.70;99.90;;;;;;4450147;27;656315;-66
2023/08/05 10:05:02;;;;;;;11.98;8.60;;;19.80;99.90;;;;;;4435915;27;655982;-65
2023/08/05 10:07:53;;;;;;;12.57;7.77;;;19.90;99.90;;;;;;4431849;27;656528;-65
2023/08/05 10:10:40;;;;;;;15.37;8.73;;;20.20;99.90;;;;;;4440954;27;656652;-66
2023/08/05 10:13:28;;;;;;;14.33;7.67;;;20.50;99.90;;;;;;4442692;27;655597;-66
2023/08/05 10:16:15;;;;;;;13.07;7.87;;;20.70;99.90;;;;;;4480118;27;656631;-66
2023/08/05 10:19:03;;;;;;;14.13;7.17;;;20.60;99.90;;;;;;4411078;27;655767;-66
2023/08/05 10:21:50;;;;;;;12.17;7.53;;;20.50;99.90;;;;;;4451091;27;655607;-65
2023/08/05 10:24:55;;;;;;;11.43;8.07;;;20.40;99.90;;;;;;4450355;27;655925;-66
2023/08/05 10:27:44;;;;;;;13.63;7.47;;;20.40;99.90;;;;;;4460431;27;655337;-66
2023/08/05 10:30:32;;;;;;;8.47;6.83;;;20.70;99.90;;;;;;4458372;27;655782;-66
2023/08/05 10:33:20;;;;;;;10.30;6.50;;;21.00;99.90;;;;;;4444112;27;654601;-66
2023/08/05 10:36:08;;;;;;;10.73;6.77;;;21.10;99.90;;;;;;4444625;27;655950;-66
2023/08/05 10:38:55;;;;;;;11.07;7.20;;;21.20;99.90;;;;;;4464106;27;655450;-66
2023/08/05 10:41:44;;;;;;;15.33;6.93;;;21.50;99.90;;;;;;4443608;27;655547;-66
2023/08/05 10:44:36;;;;;;;10.43;6.80;;;21.70;99.90;;;;;;4467284;27;656031;-66
2023/08/05 10:47:23;;;;;;;12.17;6.47;;;21.70;99.90;;;;;;4411335;27;657848;-65
2023/08/05 10:50:14;;;;;;;8.17;6.23;;;22.00;99.90;;;;;;4460668;27;656405;-65
2023/08/05 10:53:05;;;;;;;10.60;6.27;;;22.10;99.90;;;;;;4434870;27;655612;-65
2023/08/05 10:55:55;;;;;;;7.20;5.40;;;23.00;99.90;;;;;;4421320;27;655909;-65
2023/08/05 10:58:48;;;;;;;8.97;5.37;;;23.40;99.90;;;;;;4444774;27;655109;-65
2023/08/05 11:01:55;;;;;;;9.93;4.77;;;23.60;99.90;;;;;;4442169;27;655176;-66
2023/08/05 11:04:42;;;;;;;5.77;4.53;;;23.90;99.90;;;;;;4444141;27;655086;-65
2023/08/05 11:07:29;;;;;;;7.77;5.33;;;24.30;99.90;;;;;;4446421;27;655456;-66
2023/08/05 11:10:16;;;;;;;8.60;4.70;;;24.30;99.90;;;;;;4463893;27;655074;-65
2023/08/05 11:13:04;;;;;;;6.70;4.70;;;24.60;99.90;;;;;;4445816;27;654366;-65
2023/08/05 11:16:05;;;;;;;10.25;4.95;;;24.50;99.90;;;;;;4463239;27;656446;-66
2023/08/05 11:18:57;;;;;;;9.85;4.70;;;24.10;99.90;;;;;;4426986;27;655415;-67
2023/08/05 11:21:44;;;;;;;9.52;5.07;;;23.80;99.90;;;;;;4439634;27;655662;-66
2023/08/05 11:24:32;;;;;;;6.30;4.38;;;23.60;99.90;;;;;;4465398;27;654735;-66
2023/08/05 11:27:19;;;;;;;7.28;4.15;;;23.50;99.90;;;;;;4443147;27;654101;-66
2023/08/05 11:30:14;;;;;;;5.57;4.30;;;23.60;99.90;;;;;;4463357;27;654287;-66
2023/08/05 11:33:02;;;;;;;6.85;4.57;;;23.80;99.90;;;;;;4442712;27;654806;-66
2023/08/05 11:35:52;;;;;;;8.93;4.37;;;23.80;99.90;;;;;;4450237;27;654912;-66
2023/08/05 11:38:39;;;;;;;6.50;4.80;;;24.30;99.90;;;;;;4448005;27;654753;-66
2023/08/05 11:41:26;;;;;;;7.22;4.68;;;24.50;99.90;;;;;;4458212;27;654151;-66
2023/08/05 11:44:17;;;;;;;6.88;4.85;;;24.40;99.90;;;;;;4428154;27;654450;-66
2023/08/05 11:47:05;;;;;;;8.23;5.03;;;24.30;99.90;;;;;;4419918;27;654851;-66
2023/08/05 11:49:54;;;;;;;7.15;4.70;;;24.10;99.90;;;;;;4445268;27;654572;-65
2023/08/05 11:52:42;;;;;;;6.30;4.60;;;24.00;99.90;;;;;;4438432;27;654644;-66
2023/08/05 11:55:33;;;;;;;6.13;4.93;;;23.90;99.90;;;;;;4448326;27;654767;-66
2023/08/05 11:58:23;;;;;;;6.68;4.30;;;24.00;99.90;;;;;;4439864;27;654370;-65
2023/08/05 12:01:12;;;;;;;9.70;4.78;;;23.90;99.90;;;;;;4392481;27;655485;-66
2023/08/05 12:04:00;;;;;;;9.93;4.80;;;23.40;99.90;;;;;;4419646;27;655472;-65
2023/08/05 12:06:49;;;;;;;6.87;5.10;;;23.10;99.90;;;;;;4442388;27;654220;-66
2023/08/05 12:09:36;;;;;;;6.03;4.90;;;23.00;99.90;;;;;;4460194;27;655558;-66
2023/08/05 12:12:23;;;;;;;9.98;4.95;;;22.90;99.90;;;;;;4452129;27;654637;-66
2023/08/05 12:15:12;;;;;;;9.25;4.88;;;23.00;99.90;;;;;;4457714;27;654678;-65
2023/08/05 12:18:00;;;;;;;8.63;4.60;;;23.10;99.90;;;;;;4441483;27;655346;-66
2023/08/05 12:20:47;;;;;;;8.02;4.88;;;23.30;99.90;;;;;;5111717;27;20195;-65
2023/08/05 12:23:40;;;;;;;7.45;5.03;;;23.60;99.90;;;;;;5111180;27;20217;-65
2023/08/05 12:26:28;;;;;;;7.03;4.38;;;23.40;99.90;;;;;;5113673;27;20344;-65
2023/08/05 12:29:15;;;;;;;6.57;4.60;;;23.50;99.90;;;;;;5113718;27;20210;-66
2023/08/05 12:32:03;;;;;;;5.47;4.03;;;23.60;99.90;;;;;;5107272;28;20203;-66
2023/08/05 12:34:50;;;;;;;10.65;4.97;;;23.60;99.90;;;;;;5112650;28;20207;-66
2023/08/05 12:37:39;;;;;;;8.18;4.50;;;23.50;99.90;;;;;;5104309;28;20704;-65
2023/08/05 12:40:28;;;;;;;5.03;4.18;;;23.30;99.90;;;;;;5111644;28;20281;-66
2023/08/05 12:43:15;;;;;;;6.23;4.60;;;23.00;99.90;;;;;;5113218;28;20199;-66
2023/08/05 12:46:02;;;;;;;8.60;4.93;;;22.80;99.90;;;;;;5116323;27;20267;-66
2023/08/05 12:48:50;;;;;;;6.38;4.97;;;22.60;99.90;;;;;;5113369;28;20247;-65
2023/08/05 12:51:37;;;;;;;9.37;4.57;;;22.30;99.90;;;;;;5114532;28;20215;-65
2023/08/05 12:54:24;;;;;;;7.77;4.70;;;22.00;99.90;;;;;;5112316;28;20195;-65
2023/08/05 12:57:13;;;;;;;8.57;4.83;;;21.80;99.90;;;;;;5115256;28;20215;-65
2023/08/05 13:00:01;;;;;;;5.20;4.33;;;21.70;99.90;;;;;;5114545;28;20635;-66
2023/08/05 13:02:48;;;;;;;8.60;5.17;;;21.50;99.90;;;;;;5115278;28;20203;-65
2023/08/05 13:05:35;;;;;;;8.53;5.37;;;21.20;99.90;;;;;;5115226;28;20196;-65
2023/08/05 13:08:22;;;;;;;12.93;5.47;;;21.00;99.90;;;;;;5115057;28;20191;-66
2023/08/05 13:11:10;;;;;;;9.47;5.10;;;21.00;99.90;;;;;;5114689;28;20199;-66
2023/08/05 13:13:59;;;;;;;7.10;5.07;;;21.00;99.90;;;;;;5114421;28;20552;-65
2023/08/05 13:16:46;;;;;;;8.17;5.20;;;21.00;99.90;;;;;;5113970;28;20200;-66
2023/08/05 13:19:33;;;;;;;9.57;5.57;;;21.00;99.90;;;;;;5114115;28;20187;-66
2023/08/05 13:22:20;;;;;;;6.67;4.90;;;21.00;99.90;;;;;;5113742;28;20195;-65
2023/08/05 13:25:09;;;;;;;9.97;5.20;;;21.00;99.90;;;;;;5113009;28;20256;-66
2023/08/05 13:27:56;;;;;;;8.93;5.60;;;20.80;99.90;;;;;;5114150;28;20191;-66
2023/08/05 13:30:45;;;;;;;8.97;5.30;;;20.70;99.90;;;;;;5113534;28;20205;-66
2023/08/05 13:33:33;;;;;;;8.33;5.57;;;20.80;99.90;;;;;;5094421;28;20655;-66
2023/08/05 13:36:22;;;;;;;8.87;5.60;;;20.90;99.90;;;;;;5093440;28;20200;-66
2023/08/05 13:39:11;;;;;;;7.47;5.20;;;21.00;99.90;;;;;;5092855;28;20230;-65
2023/08/05 13:41:59;;;;;;;6.37;5.30;;;21.00;99.90;;;;;;5093086;28;20232;-66
2023/08/05 13:44:47;;;;;;;8.47;5.63;;;21.00;99.90;;;;;;5093635;28;20200;-66
2023/08/05 13:47:36;;;;;;;5.57;4.80;;;21.10;99.90;;;;;;5093150;28;20206;-66
2023/08/05 13:50:23;;;;;;;8.60;5.47;;;21.10;99.90;;;;;;5092335;28;20203;-66
2023/08/05 13:53:11;;;;;;;8.63;5.10;;;21.10;99.90;;;;;;5093295;28;20204;-66
2023/08/05 13:55:58;;;;;;;7.77;5.10;;;21.10;99.90;;;;;;5092643;28;20195;-65
2023/08/05 13:58:52;;;;;;;7.23;4.90;;;21.10;99.90;;;;;;5093300;28;20709;-66
2023/08/05 14:01:42;;;;;;;7.47;5.10;;;21.10;99.90;;;;;;5092941;28;20196;-65
2023/08/05 14:04:31;;;;;;;6.77;4.97;;;21.10;99.90;;;;;;5093179;28;20196;-65
2023/08/05 14:07:18;;;;;;;8.40;5.03;;;21.00;99.90;;;;;;5093507;28;20196;-66
2023/08/05 14:10:07;;;;;;;7.90;4.83;;;21.10;99.90;;;;;;5109083;28;20206;-66
2023/08/05 14:12:54;;;;;;;6.53;5.00;;;21.10;99.90;;;;;;5113561;28;20203;-66
2023/08/05 14:15:42;;;;;;;6.17;5.00;;;21.00;99.90;;;;;;5112888;28;20279;-66
2023/08/05 14:18:37;;;;;;;7.03;4.27;;;21.10;99.90;;;;;;5113364;28;20222;-66
2023/08/05 14:21:26;;;;;;;6.13;4.50;;;21.00;99.90;;;;;;5113369;28;20199;-66